sensor_id;sensor_type;location;lat;lon;timestamp;pressure;altitude;pressure_sealevel;temperature;humidity
38852;BME280;24605;50.092;9.182;2023-02-11T00:00:54;99792.00;;;0.93;100.00
38852;BME280;24605;50.092;9.182;2023-02-11T00:03:20;99795.44;;;0.94;100.00
38852;BME280;24605;50.092;9.182;2023-02-11T00:05:56;99802.47;;;0.90;100.00
38852;BME280;24605;50.092;9.182;2023-02-11T00:08:22;99794.63;;;0.92;100.00
38852;BME280;24605;50.092;9.182;2023-02-11T00:10:51;99783.88;;;0.81;100.00
38852;BME280;24605;50.092;9.182;2023-02-11T00:13:18;99762.47;;;0.78;100.00
38852;BME280;24605;50.092;9.182;2023-02-11T00:15:46;99795.06;;;1.03;100.00
38852;BME280;24605;50.092;9.182;2023-02-11T00:18:13;99766.84;;;0.99;100.00
38852;BME280;24605;50.092;9.182;2023-02-11T00:20:41;99800.41;;;1.19;100.00
38852;BME280;24605;50.092;9.182;2023-02-11T00:23:08;99786.38;;;1.27;100.00
38852;BME280;24605;50.092;9.182;2023-02-11T00:25:39;99735.84;;;0.99;100.00
38852;BME280;24605;50.092;9.182;2023-02-11T00:28:06;99763.69;;;1.13;100.00
38852;BME280;24605;50.092;9.182;2023-02-11T00:30:33;99803.41;;;1.31;100.00
38852;BME280;24605;50.092;9.182;2023-02-11T00:33:02;99793.84;;;1.33;100.00
38852;BME280;24605;50.092;9.182;2023-02-11T00:35:29;99785.59;;;1.24;100.00
38852;BME280;24605;50.092;9.182;2023-02-11T00:37:55;99792.88;;;1.35;100.00
38852;BME280;24605;50.092;9.182;2023-02-11T00:40:22;99786.03;;;1.34;100.00
38852;BME280;24605;50.092;9.182;2023-02-11T00:42:49;99784.94;;;1.40;100.00
38852;BME280;24605;50.092;9.182;2023-02-11T00:45:16;99777.84;;;1.45;100.00
38852;BME280;24605;50.092;9.182;2023-02-11T00:47:45;99777.09;;;1.41;100.00
38852;BME280;24605;50.092;9.182;2023-02-11T00:50:13;99775.97;;;1.49;100.00
38852;BME280;24605;50.092;9.182;2023-02-11T00:52:40;99780.47;;;1.44;100.00
38852;BME280;24605;50.092;9.182;2023-02-11T00:55:07;99774.28;;;1.48;100.00
38852;BME280;24605;50.092;9.182;2023-02-11T00:57:34;99783.22;;;1.40;100.00
38852;BME280;24605;50.092;9.182;2023-02-11T01:00:02;99662.81;;;0.74;100.00
38852;BME280;24605;50.092;9.182;2023-02-11T01:02:30;99766.78;;;1.41;100.00
38852;BME280;24605;50.092;9.182;2023-02-11T01:04:57;99766.78;;;1.41;100.00
38852;BME280;24605;50.092;9.182;2023-02-11T01:07:25;99758.69;;;1.49;100.00
38852;BME280;24605;50.092;9.182;2023-02-11T01:09:52;99758.22;;;1.60;100.00
38852;BME280;24605;50.092;9.182;2023-02-11T01:12:18;99755.09;;;1.53;100.00
38852;BME280;24605;50.092;9.182;2023-02-11T01:14:45;99756.56;;;1.59;100.00
38852;BME280;24605;50.092;9.182;2023-02-11T01:17:11;99763.56;;;1.57;100.00
38852;BME280;24605;50.092;9.182;2023-02-11T01:19:38;99734.84;;;1.43;100.00
38852;BME280;24605;50.092;9.182;2023-02-11T01:22:05;99755.03;;;1.55;100.00
38852;BME280;24605;50.092;9.182;2023-02-11T01:24:34;99712.47;;;1.43;100.00
38852;BME280;24605;50.092;9.182;2023-02-11T01:27:01;99738.72;;;1.53;100.00
38852;BME280;24605;50.092;9.182;2023-02-11T01:29:27;99742.00;;;1.77;100.00
38852;BME280;24605;50.092;9.182;2023-02-11T01:31:54;99725.13;;;1.68;100.00
38852;BME280;24605;50.092;9.182;2023-02-11T01:34:21;99733.03;;;1.65;100.00
38852;BME280;24605;50.092;9.182;2023-02-11T01:36:56;99728.91;;;1.61;100.00
38852;BME280;24605;50.092;9.182;2023-02-11T01:39:22;99726.50;;;1.56;100.00
38852;BME280;24605;50.092;9.182;2023-02-11T01:41:50;99700.38;;;1.44;100.00
38852;BME280;24605;50.092;9.182;2023-02-11T01:44:25;99657.72;;;1.14;100.00
38852;BME280;24605;50.092;9.182;2023-02-11T01:46:53;99705.09;;;1.34;100.00
38852;BME280;24605;50.092;9.182;2023-02-11T01:49:24;99677.91;;;1.25;100.00
38852;BME280;24605;50.092;9.182;2023-02-11T01:51:55;99718.97;;;1.52;100.00
38852;BME280;24605;50.092;9.182;2023-02-11T01:54:27;99718.72;;;1.58;100.00
38852;BME280;24605;50.092;9.182;2023-02-11T01:57:15;99708.28;;;1.60;100.00
38852;BME280;24605;50.092;9.182;2023-02-11T01:59:57;99690.53;;;1.52;100.00
38852;BME280;24605;50.092;9.182;2023-02-11T02:02:31;99690.91;;;1.63;100.00
38852;BME280;24605;50.092;9.182;2023-02-11T02:05:05;99676.28;;;1.62;100.00
38852;BME280;24605;50.092;9.182;2023-02-11T02:07:36;99688.81;;;1.71;100.00
38852;BME280;24605;50.092;9.182;2023-02-11T02:10:09;99693.69;;;1.78;100.00
38852;BME280;24605;50.092;9.182;2023-02-11T02:12:38;99692.66;;;1.82;100.00
38852;BME280;24605;50.092;9.182;2023-02-11T02:15:19;99686.72;;;1.80;100.00
38852;BME280;24605;50.092;9.182;2023-02-11T02:17:53;99684.91;;;1.82;100.00
38852;BME280;24605;50.092;9.182;2023-02-11T02:26:45;99667.00;;;1.77;100.00
38852;BME280;24605;50.092;9.182;2023-02-11T02:29:49;99662.13;;;1.90;100.00
38852;BME280;24605;50.092;9.182;2023-02-11T02:32:32;99663.56;;;1.77;100.00
38852;BME280;24605;50.092;9.182;2023-02-11T02:35:09;99664.56;;;1.74;100.00
38852;BME280;24605;50.092;9.182;2023-02-11T02:37:40;99648.16;;;1.56;100.00
38852;BME280;24605;50.092;9.182;2023-02-11T02:40:13;99671.63;;;1.70;100.00
38852;BME280;24605;50.092;9.182;2023-02-11T02:42:41;99669.47;;;1.80;100.00
38852;BME280;24605;50.092;9.182;2023-02-11T02:45:11;99674.13;;;1.72;100.00
38852;BME280;24605;50.092;9.182;2023-02-11T02:48:26;99644.38;;;1.63;100.00
38852;BME280;24605;50.092;9.182;2023-02-11T02:51:02;99684.47;;;1.91;100.00
38852;BME280;24605;50.092;9.182;2023-02-11T02:53:51;99682.66;;;1.93;100.00
38852;BME280;24605;50.092;9.182;2023-02-11T02:56:24;99668.09;;;1.91;100.00
38852;BME280;24605;50.092;9.182;2023-02-11T02:59:06;99684.41;;;1.93;100.00
38852;BME280;24605;50.092;9.182;2023-02-11T03:01:42;99680.84;;;1.95;100.00
38852;BME280;24605;50.092;9.182;2023-02-11T03:04:19;99662.41;;;1.84;100.00
38852;BME280;24605;50.092;9.182;2023-02-11T03:06:51;99686.28;;;1.89;100.00
38852;BME280;24605;50.092;9.182;2023-02-11T03:09:22;99691.09;;;1.78;100.00
38852;BME280;24605;50.092;9.182;2023-02-11T03:11:51;99705.16;;;1.72;100.00
38852;BME280;24605;50.092;9.182;2023-02-11T03:14:19;99692.28;;;1.70;100.00
38852;BME280;24605;50.092;9.182;2023-02-11T03:16:48;99630.03;;;1.37;100.00
38852;BME280;24605;50.092;9.182;2023-02-11T03:19:20;99694.59;;;1.77;100.00
38852;BME280;24605;50.092;9.182;2023-02-11T03:21:50;99676.94;;;1.67;100.00
38852;BME280;24605;50.092;9.182;2023-02-11T03:24:20;99681.53;;;1.80;100.00
38852;BME280;24605;50.092;9.182;2023-02-11T03:26:51;99668.53;;;1.81;100.00
38852;BME280;24605;50.092;9.182;2023-02-11T03:29:35;99677.75;;;1.87;100.00
38852;BME280;24605;50.092;9.182;2023-02-11T03:32:08;99664.22;;;1.82;100.00
38852;BME280;24605;50.092;9.182;2023-02-11T03:34:45;99656.66;;;1.77;100.00
38852;BME280;24605;50.092;9.182;2023-02-11T03:37:17;99642.41;;;1.68;100.00
38852;BME280;24605;50.092;9.182;2023-02-11T03:39:47;99635.34;;;1.53;100.00
38852;BME280;24605;50.092;9.182;2023-02-11T03:42:18;99600.00;;;1.34;100.00
38852;BME280;24605;50.092;9.182;2023-02-11T03:44:49;99620.22;;;1.45;100.00
38852;BME280;24605;50.092;9.182;2023-02-11T03:47:20;99612.91;;;1.34;100.00
38852;BME280;24605;50.092;9.182;2023-02-11T03:49:52;99612.78;;;1.37;100.00
38852;BME280;24605;50.092;9.182;2023-02-11T03:52:21;99611.22;;;1.33;100.00
38852;BME280;24605;50.092;9.182;2023-02-11T03:54:52;99620.53;;;1.37;100.00
38852;BME280;24605;50.092;9.182;2023-02-11T03:57:20;99612.00;;;1.35;100.00
38852;BME280;24605;50.092;9.182;2023-02-11T03:59:54;99617.06;;;1.38;100.00
38852;BME280;24605;50.092;9.182;2023-02-11T04:02:23;99610.28;;;1.36;100.00
38852;BME280;24605;50.092;9.182;2023-02-11T04:04:54;99617.09;;;1.37;100.00
38852;BME280;24605;50.092;9.182;2023-02-11T04:07:21;99593.44;;;1.27;100.00
38852;BME280;24605;50.092;9.182;2023-02-11T04:09:49;99628.66;;;1.49;100.00
38852;BME280;24605;50.092;9.182;2023-02-11T04:12:16;99617.25;;;1.53;100.00
38852;BME280;24605;50.092;9.182;2023-02-11T04:14:43;99625.78;;;1.55;100.00
38852;BME280;24605;50.092;9.182;2023-02-11T04:17:11;99615.56;;;1.52;100.00
38852;BME280;24605;50.092;9.182;2023-02-11T04:19:38;99620.34;;;1.61;100.00
38852;BME280;24605;50.092;9.182;2023-02-11T04:22:07;99611.59;;;1.64;100.00
38852;BME280;24605;50.092;9.182;2023-02-11T04:24:33;99620.19;;;1.64;100.00
38852;BME280;24605;50.092;9.182;2023-02-11T04:27:00;99554.69;;;1.27;100.00
38852;BME280;24605;50.092;9.182;2023-02-11T04:29:27;99618.44;;;1.65;100.00
38852;BME280;24605;50.092;9.182;2023-02-11T04:31:53;99612.31;;;1.67;100.00
38852;BME280;24605;50.092;9.182;2023-02-11T04:34:20;99620.81;;;1.69;100.00
38852;BME280;24605;50.092;9.182;2023-02-11T04:36:47;99617.69;;;1.63;100.00
38852;BME280;24605;50.092;9.182;2023-02-11T04:39:15;99622.28;;;1.75;100.00
38852;BME280;24605;50.092;9.182;2023-02-11T04:41:42;99628.44;;;1.72;100.00
38852;BME280;24605;50.092;9.182;2023-02-11T04:44:10;99629.69;;;1.83;100.00
38852;BME280;24605;50.092;9.182;2023-02-11T04:46:38;99627.88;;;1.85;100.00
38852;BME280;24605;50.092;9.182;2023-02-11T04:49:04;99516.44;;;1.16;100.00
38852;BME280;24605;50.092;9.182;2023-02-11T04:51:31;99619.97;;;1.88;100.00
38852;BME280;24605;50.092;9.182;2023-02-11T04:53:57;99613.50;;;1.79;100.00
38852;BME280;24605;50.092;9.182;2023-02-11T04:56:25;99621.09;;;1.82;100.00
38852;BME280;24605;50.092;9.182;2023-02-11T04:58:52;99621.03;;;1.84;100.00
38852;BME280;24605;50.092;9.182;2023-02-11T05:01:18;99617.53;;;1.85;100.00
38852;BME280;24605;50.092;9.182;2023-02-11T05:03:45;99620.03;;;1.86;100.00
38852;BME280;24605;50.092;9.182;2023-02-11T05:06:11;99617.69;;;1.82;100.00
38852;BME280;24605;50.092;9.182;2023-02-11T05:08:39;99609.06;;;1.81;100.00
38852;BME280;24605;50.092;9.182;2023-02-11T05:11:07;99604.75;;;1.82;100.00
38852;BME280;24605;50.092;9.182;2023-02-11T05:13:39;99601.25;;;1.83;100.00
38852;BME280;24605;50.092;9.182;2023-02-11T05:16:06;99610.81;;;1.81;100.00
38852;BME280;24605;50.092;9.182;2023-02-11T05:18:32;99603.06;;;1.81;100.00
38852;BME280;24605;50.092;9.182;2023-02-11T05:21:04;99595.53;;;1.76;100.00
38852;BME280;24605;50.092;9.182;2023-02-11T05:23:31;99604.81;;;1.80;100.00
38852;BME280;24605;50.092;9.182;2023-02-11T05:25:58;99605.78;;;1.78;100.00
38852;BME280;24605;50.092;9.182;2023-02-11T05:28:24;99616.81;;;1.81;100.00
38852;BME280;24605;50.092;9.182;2023-02-11T05:30:52;99614.97;;;1.85;100.00
38852;BME280;24605;50.092;9.182;2023-02-11T05:33:19;99622.56;;;1.88;100.00
38852;BME280;24605;50.092;9.182;2023-02-11T05:35:46;99621.50;;;1.92;100.00
38852;BME280;24605;50.092;9.182;2023-02-11T05:38:13;99619.06;;;1.89;100.00
38852;BME280;24605;50.092;9.182;2023-02-11T05:40:39;99609.28;;;1.96;100.00
38852;BME280;24605;50.092;9.182;2023-02-11T05:43:07;99589.00;;;1.86;100.00
38852;BME280;24605;50.092;9.182;2023-02-11T05:45:35;99491.91;;;1.25;100.00
38852;BME280;24605;50.092;9.182;2023-02-11T05:48:04;99531.63;;;1.41;100.00
38852;BME280;24605;50.092;9.182;2023-02-11T05:50:31;99588.59;;;1.77;100.00
38852;BME280;24605;50.092;9.182;2023-02-11T05:52:57;99604.41;;;1.70;100.00
38852;BME280;24605;50.092;9.182;2023-02-11T05:55:27;99593.22;;;1.70;100.00
38852;BME280;24605;50.092;9.182;2023-02-11T05:57:56;99603.88;;;1.81;100.00
38852;BME280;24605;50.092;9.182;2023-02-11T06:00:23;99590.84;;;1.65;100.00
38852;BME280;24605;50.092;9.182;2023-02-11T06:02:50;99611.84;;;1.77;100.00
38852;BME280;24605;50.092;9.182;2023-02-11T06:05:18;99600.63;;;1.78;100.00
38852;BME280;24605;50.092;9.182;2023-02-11T06:07:45;99587.16;;;1.71;100.00
38852;BME280;24605;50.092;9.182;2023-02-11T06:10:12;99592.25;;;1.72;100.00
38852;BME280;24605;50.092;9.182;2023-02-11T06:12:38;99583.59;;;1.74;100.00
38852;BME280;24605;50.092;9.182;2023-02-11T06:15:05;99599.72;;;1.79;100.00
38852;BME280;24605;50.092;9.182;2023-02-11T06:17:32;99587.56;;;1.81;100.00
38852;BME280;24605;50.092;9.182;2023-02-11T06:20:01;99590.28;;;1.78;100.00
38852;BME280;24605;50.092;9.182;2023-02-11T06:22:29;99596.34;;;1.77;100.00
38852;BME280;24605;50.092;9.182;2023-02-11T06:24:56;99597.81;;;1.82;100.00
38852;BME280;24605;50.092;9.182;2023-02-11T06:27:22;99604.09;;;1.77;100.00
38852;BME280;24605;50.092;9.182;2023-02-11T06:29:49;99597.28;;;1.76;100.00
38852;BME280;24605;50.092;9.182;2023-02-11T06:32:16;99585.94;;;1.59;100.00
38852;BME280;24605;50.092;9.182;2023-02-11T06:34:43;99617.19;;;1.74;100.00
38852;BME280;24605;50.092;9.182;2023-02-11T06:37:10;99602.72;;;1.69;100.00
38852;BME280;24605;50.092;9.182;2023-02-11T06:39:37;99584.69;;;1.68;100.00
38852;BME280;24605;50.092;9.182;2023-02-11T06:42:04;99554.47;;;1.51;100.00
38852;BME280;24605;50.092;9.182;2023-02-11T06:44:30;99606.00;;;1.73;100.00
38852;BME280;24605;50.092;9.182;2023-02-11T06:46:57;99584.22;;;1.60;100.00
38852;BME280;24605;50.092;9.182;2023-02-11T06:49:23;99598.63;;;1.65;100.00
38852;BME280;24605;50.092;9.182;2023-02-11T06:51:50;99584.00;;;1.64;100.00
38852;BME280;24605;50.092;9.182;2023-02-11T06:54:16;99592.59;;;1.65;100.00
38852;BME280;24605;50.092;9.182;2023-02-11T06:56:44;99585.63;;;1.67;100.00
38852;BME280;24605;50.092;9.182;2023-02-11T06:59:14;99597.41;;;1.72;100.00
38852;BME280;24605;50.092;9.182;2023-02-11T07:01:40;99594.69;;;1.76;100.00
38852;BME280;24605;50.092;9.182;2023-02-11T07:04:07;99556.13;;;1.52;100.00
38852;BME280;24605;50.092;9.182;2023-02-11T07:06:34;99595.59;;;1.75;100.00
38852;BME280;24605;50.092;9.182;2023-02-11T07:09:02;99617.03;;;1.77;100.00
38852;BME280;24605;50.092;9.182;2023-02-11T07:11:29;99604.81;;;1.80;100.00
38852;BME280;24605;50.092;9.182;2023-02-11T07:14:00;99610.81;;;1.81;100.00
38852;BME280;24605;50.092;9.182;2023-02-11T07:16:26;99593.53;;;1.81;100.00
38852;BME280;24605;50.092;9.182;2023-02-11T07:18:53;99591.25;;;1.75;100.00
38852;BME280;24605;50.092;9.182;2023-02-11T07:21:21;99601.78;;;1.90;100.00
38852;BME280;24605;50.092;9.182;2023-02-11T07:23:49;99580.69;;;1.80;100.00
38852;BME280;24605;50.092;9.182;2023-02-11T07:26:17;99606.16;;;2.07;100.00
38852;BME280;24605;50.092;9.182;2023-02-11T07:28:44;99600.69;;;2.13;100.00
38852;BME280;24605;50.092;9.182;2023-02-11T07:31:14;99609.63;;;2.25;100.00
38852;BME280;24605;50.092;9.182;2023-02-11T07:33:41;99614.03;;;2.23;100.00
38852;BME280;24605;50.092;9.182;2023-02-11T07:36:09;99602.38;;;2.14;100.00
38852;BME280;24605;50.092;9.182;2023-02-11T07:38:36;99612.56;;;2.17;100.00
38852;BME280;24605;50.092;9.182;2023-02-11T07:41:04;99588.81;;;2.09;100.00
38852;BME280;24605;50.092;9.182;2023-02-11T07:43:31;99611.72;;;2.16;100.00
38852;BME280;24605;50.092;9.182;2023-02-11T07:45:58;99622.78;;;2.20;100.00
38852;BME280;24605;50.092;9.182;2023-02-11T07:48:26;99621.94;;;2.19;100.00
38852;BME280;24605;50.092;9.182;2023-02-11T07:50:52;99632.66;;;2.29;100.00
38852;BME280;24605;50.092;9.182;2023-02-11T07:53:18;99636.44;;;2.41;100.00
38852;BME280;24605;50.092;9.182;2023-02-11T07:55:45;99631.25;;;2.41;100.00
38852;BME280;24605;50.092;9.182;2023-02-11T07:58:11;99634.91;;;2.55;100.00
38852;BME280;24605;50.092;9.182;2023-02-11T08:00:38;99636.44;;;2.59;100.00
38852;BME280;24605;50.092;9.182;2023-02-11T08:03:04;99633.84;;;2.59;100.00
38852;BME280;24605;50.092;9.182;2023-02-11T08:05:36;99643.34;;;2.58;100.00
38852;BME280;24605;50.092;9.182;2023-02-11T08:08:03;99644.22;;;2.76;100.00
38852;BME280;24605;50.092;9.182;2023-02-11T08:10:29;99644.22;;;2.76;100.00
38852;BME280;24605;50.092;9.182;2023-02-11T08:12:56;99661.66;;;2.90;100.00
38852;BME280;24605;50.092;9.182;2023-02-11T08:15:22;99662.56;;;2.89;100.00
38852;BME280;24605;50.092;9.182;2023-02-11T08:17:49;99645.50;;;2.85;100.00
38852;BME280;24605;50.092;9.182;2023-02-11T08:20:15;99656.16;;;2.96;100.00
38852;BME280;24605;50.092;9.182;2023-02-11T08:22:43;99650.50;;;3.06;100.00
38852;BME280;24605;50.092;9.182;2023-02-11T08:25:10;99657.94;;;3.12;100.00
38852;BME280;24605;50.092;9.182;2023-02-11T08:27:36;99610.59;;;2.92;100.00
38852;BME280;24605;50.092;9.182;2023-02-11T08:30:03;99660.16;;;3.20;100.00
38852;BME280;24605;50.092;9.182;2023-02-11T08:32:30;99657.03;;;3.13;100.00
38852;BME280;24605;50.092;9.182;2023-02-11T08:34:56;99665.06;;;3.08;100.00
38852;BME280;24605;50.092;9.182;2023-02-11T08:37:23;99657.06;;;2.95;100.00
38852;BME280;24605;50.092;9.182;2023-02-11T08:39:51;99670.25;;;2.91;100.00
38852;BME280;24605;50.092;9.182;2023-02-11T08:42:17;99665.63;;;2.80;100.00
38852;BME280;24605;50.092;9.182;2023-02-11T08:44:44;99677.47;;;2.84;100.00
38852;BME280;24605;50.092;9.182;2023-02-11T08:47:11;99688.91;;;2.80;100.00
38852;BME280;24605;50.092;9.182;2023-02-11T08:49:37;99677.94;;;2.92;100.00
38852;BME280;24605;50.092;9.182;2023-02-11T08:52:06;99677.66;;;2.98;100.00
38852;BME280;24605;50.092;9.182;2023-02-11T08:54:32;99685.53;;;3.13;100.00
38852;BME280;24605;50.092;9.182;2023-02-11T08:57:00;99689.34;;;3.23;100.00
38852;BME280;24605;50.092;9.182;2023-02-11T08:59:27;99679.97;;;3.21;100.00
38852;BME280;24605;50.092;9.182;2023-02-11T09:01:54;99699.47;;;3.28;100.00
38852;BME280;24605;50.092;9.182;2023-02-11T09:04:20;99688.09;;;3.31;100.00
38852;BME280;24605;50.092;9.182;2023-02-11T09:06:47;99694.22;;;3.29;100.00
38852;BME280;24605;50.092;9.182;2023-02-11T09:09:14;99682.00;;;3.32;100.00
38852;BME280;24605;50.092;9.182;2023-02-11T09:11:42;99687.28;;;3.30;100.00
38852;BME280;24605;50.092;9.182;2023-02-11T09:14:15;99694.31;;;3.44;100.00
38852;BME280;24605;50.092;9.182;2023-02-11T09:16:42;99692.50;;;3.46;100.00
38852;BME280;24605;50.092;9.182;2023-02-11T09:19:09;99702.06;;;3.61;100.00
38852;BME280;24605;50.092;9.182;2023-02-11T09:21:35;99677.38;;;3.54;100.00
38852;BME280;24605;50.092;9.182;2023-02-11T09:24:02;99697.25;;;3.87;100.00
38852;BME280;24605;50.092;9.182;2023-02-11T09:26:32;99696.75;;;3.81;100.00
38852;BME280;24605;50.092;9.182;2023-02-11T09:28:59;99696.81;;;3.79;100.00
38852;BME280;24605;50.092;9.182;2023-02-11T09:31:28;99649.94;;;3.50;100.00
38852;BME280;24605;50.092;9.182;2023-02-11T09:33:59;99699.91;;;3.70;100.00
38852;BME280;24605;50.092;9.182;2023-02-11T09:36:28;99699.44;;;3.95;100.00
38852;BME280;24605;50.092;9.182;2023-02-11T09:38:57;99682.88;;;3.82;100.00
38852;BME280;24605;50.092;9.182;2023-02-11T09:41:44;99717.31;;;3.84;100.00
38852;BME280;24605;50.092;9.182;2023-02-11T09:44:17;99703.63;;;3.82;100.00
38852;BME280;24605;50.092;9.182;2023-02-11T09:46:52;99718.16;;;3.84;100.00
38852;BME280;24605;50.092;9.182;2023-02-11T09:49:23;99717.41;;;3.82;100.00
38852;BME280;24605;50.092;9.182;2023-02-11T09:51:56;99717.16;;;3.87;100.00
38852;BME280;24605;50.092;9.182;2023-02-11T09:54:27;99712.56;;;4.08;100.00
38852;BME280;24605;50.092;9.182;2023-02-11T09:56:56;99712.66;;;3.90;100.00
38852;BME280;24605;50.092;9.182;2023-02-11T09:59:23;99708.38;;;3.89;100.00
38852;BME280;24605;50.092;9.182;2023-02-11T10:01:53;99694.88;;;3.67;100.00
38852;BME280;24605;50.092;9.182;2023-02-11T10:04:33;99679.09;;;3.71;100.00
38852;BME280;24605;50.092;9.182;2023-02-11T10:07:14;99702.44;;;3.71;100.00
38852;BME280;24605;50.092;9.182;2023-02-11T10:09:51;99703.38;;;3.86;100.00
38852;BME280;24605;50.092;9.182;2023-02-11T10:12:34;99705.78;;;3.89;100.00
38852;BME280;24605;50.092;9.182;2023-02-11T10:15:12;99693.91;;;3.85;100.00
38852;BME280;24605;50.092;9.182;2023-02-11T10:17:53;99690.13;;;3.75;100.00
38852;BME280;24605;50.092;9.182;2023-02-11T10:20:30;99691.56;;;3.81;100.00
38852;BME280;24605;50.092;9.182;2023-02-11T10:22:59;99699.78;;;4.05;100.00
38852;BME280;24605;50.092;9.182;2023-02-11T10:25:34;99704.47;;;3.98;100.00
38852;BME280;24605;50.092;9.182;2023-02-11T10:28:10;99710.84;;;4.08;100.00
38852;BME280;24605;50.092;9.182;2023-02-11T10:30:49;99714.31;;;4.23;100.00
38852;BME280;24605;50.092;9.182;2023-02-11T10:33:24;99711.72;;;4.23;100.00
38852;BME280;24605;50.092;9.182;2023-02-11T10:35:52;99710.66;;;4.12;100.00
38852;BME280;24605;50.092;9.182;2023-02-11T10:38:19;99724.13;;;4.02;100.00
38852;BME280;24605;50.092;9.182;2023-02-11T10:40:46;99706.28;;;3.96;100.00
38852;BME280;24605;50.092;9.182;2023-02-11T10:43:14;99725.25;;;4.14;100.00
38852;BME280;24605;50.092;9.182;2023-02-11T10:45:43;99726.16;;;4.13;100.00
38852;BME280;24605;50.092;9.182;2023-02-11T10:48:37;99718.19;;;4.16;100.00
38852;BME280;24605;50.092;9.182;2023-02-11T10:51:17;99699.44;;;4.11;100.00
38852;BME280;24605;50.092;9.182;2023-02-11T10:53:45;99699.28;;;4.14;100.00
38852;BME280;24605;50.092;9.182;2023-02-11T10:56:20;99724.38;;;4.46;100.00
38852;BME280;24605;50.092;9.182;2023-02-11T10:58:54;99722.56;;;4.32;100.00
38852;BME280;24605;50.092;9.182;2023-02-11T11:01:23;99725.31;;;4.29;100.00
38852;BME280;24605;50.092;9.182;2023-02-11T11:04:03;99719.69;;;4.36;100.00
38852;BME280;24605;50.092;9.182;2023-02-11T11:06:31;99724.44;;;4.44;100.00
38852;BME280;24605;50.092;9.182;2023-02-11T11:08:58;99712.13;;;4.48;100.00
38852;BME280;24605;50.092;9.182;2023-02-11T11:11:25;99722.88;;;4.42;100.00
38852;BME280;24605;50.092;9.182;2023-02-11T11:13:57;99719.16;;;4.46;100.00
38852;BME280;24605;50.092;9.182;2023-02-11T11:16:26;99690.44;;;4.33;100.00
38852;BME280;24605;50.092;9.182;2023-02-11T11:19:19;99712.28;;;4.61;100.00
38852;BME280;24605;50.092;9.182;2023-02-11T11:21:47;99710.31;;;4.80;100.00
38852;BME280;24605;50.092;9.182;2023-02-11T11:24:17;99679.66;;;4.71;100.00
38852;BME280;24605;50.092;9.182;2023-02-11T11:26:47;99698.47;;;4.60;100.00
38852;BME280;24605;50.092;9.182;2023-02-11T11:29:16;99689.41;;;4.67;100.00
38852;BME280;24605;50.092;9.182;2023-02-11T11:31:46;99687.28;;;4.74;100.00
38852;BME280;24605;50.092;9.182;2023-02-11T11:34:22;99689.16;;;4.86;100.00
38852;BME280;24605;50.092;9.182;2023-02-11T11:36:50;99668.00;;;4.78;100.00
38852;BME280;24605;50.092;9.182;2023-02-11T11:39:20;99673.28;;;5.36;98.91
38852;BME280;24605;50.092;9.182;2023-02-11T11:41:50;99682.38;;;5.58;98.16
38852;BME280;24605;50.092;9.182;2023-02-11T11:44:23;99680.13;;;5.80;96.21
38852;BME280;24605;50.092;9.182;2023-02-11T11:47:03;99685.59;;;5.90;95.43
38852;BME280;24605;50.092;9.182;2023-02-11T11:49:35;99675.00;;;5.79;95.88
38852;BME280;24605;50.092;9.182;2023-02-11T11:52:10;99678.09;;;5.71;95.16
38852;BME280;24605;50.092;9.182;2023-02-11T11:54:46;99676.59;;;5.67;96.01
38852;BME280;24605;50.092;9.182;2023-02-11T11:57:17;99672.16;;;5.69;97.31
38852;BME280;24605;50.092;9.182;2023-02-11T11:59:47;99679.56;;;6.04;93.90
38852;BME280;24605;50.092;9.182;2023-02-11T12:02:34;99678.81;;;5.73;95.44
38852;BME280;24605;50.092;9.182;2023-02-11T12:05:09;99676.59;;;5.67;96.30
38852;BME280;24605;50.092;9.182;2023-02-11T12:07:47;99675.88;;;5.79;95.22
38852;BME280;24605;50.092;9.182;2023-02-11T12:10:30;99682.88;;;5.92;95.16
38852;BME280;24605;50.092;9.182;2023-02-11T12:13:08;99679.38;;;5.78;95.38
38852;BME280;24605;50.092;9.182;2023-02-11T12:15:42;99693.59;;;5.87;95.04
38852;BME280;24605;50.092;9.182;2023-02-11T12:18:21;99692.88;;;5.71;95.98
38852;BME280;24605;50.092;9.182;2023-02-11T12:21:02;99695.47;;;5.71;95.94
38852;BME280;24605;50.092;9.182;2023-02-11T12:23:42;99687.56;;;5.58;97.24
38852;BME280;24605;50.092;9.182;2023-02-11T12:26:13;99699.75;;;5.43;98.97
38852;BME280;24605;50.092;9.182;2023-02-11T12:28:52;99677.53;;;5.23;99.75
38852;BME280;24605;50.092;9.182;2023-02-11T12:31:33;99691.13;;;5.42;100.00
38852;BME280;24605;50.092;9.182;2023-02-11T12:34:23;99692.97;;;5.26;100.00
38852;BME280;24605;50.092;9.182;2023-02-11T12:37:01;99686.47;;;5.47;100.00
38852;BME280;24605;50.092;9.182;2023-02-11T12:39:34;99673.28;;;5.36;100.00
38852;BME280;24605;50.092;9.182;2023-02-11T12:42:43;99667.13;;;5.23;100.00
38852;BME280;24605;50.092;9.182;2023-02-11T12:45:38;99677.38;;;5.26;100.00
38852;BME280;24605;50.092;9.182;2023-02-11T12:48:18;99666.75;;;5.14;100.00
38852;BME280;24605;50.092;9.182;2023-02-11T12:50:53;99676.50;;;5.11;100.00
38852;BME280;24605;50.092;9.182;2023-02-11T12:53:38;99674.44;;;5.01;100.00
38852;BME280;24605;50.092;9.182;2023-02-11T12:56:15;99681.75;;;4.95;100.00
38852;BME280;24605;50.092;9.182;2023-02-11T12:58:45;99681.03;;;4.93;100.00
38852;BME280;24605;50.092;9.182;2023-02-11T13:01:18;99669.69;;;4.94;100.00
38852;BME280;24605;50.092;9.182;2023-02-11T13:03:48;99641.44;;;4.73;100.00
38852;BME280;24605;50.092;9.182;2023-02-11T13:06:19;99661.69;;;4.82;100.00
38852;BME280;24605;50.092;9.182;2023-02-11T13:08:51;99668.56;;;4.83;100.00
38852;BME280;24605;50.092;9.182;2023-02-11T13:11:21;99661.13;;;4.77;100.00
38852;BME280;24605;50.092;9.182;2023-02-11T13:13:52;99668.09;;;4.91;100.00
38852;BME280;24605;50.092;9.182;2023-02-11T13:16:31;99655.50;;;4.99;100.00
38852;BME280;24605;50.092;9.182;2023-02-11T13:19:03;99647.91;;;4.96;100.00
38852;BME280;24605;50.092;9.182;2023-02-11T13:21:45;99650.50;;;4.96;100.00
38852;BME280;24605;50.092;9.182;2023-02-11T13:24:21;99642.59;;;4.98;100.00